sensor_id;sensor_type;location;lat;lon;timestamp;temperature;humidity
8226;DHT22;4154;48.810;9.012;2022-07-23T00:00:53;24.20;85.70
8226;DHT22;4154;48.810;9.012;2022-07-23T00:03:18;24.20;85.50
8226;DHT22;4154;48.810;9.012;2022-07-23T00:05:44;24.20;84.60
8226;DHT22;4154;48.810;9.012;2022-07-23T00:08:10;24.20;84.60
8226;DHT22;4154;48.810;9.012;2022-07-23T00:10:36;24.10;84.60
8226;DHT22;4154;48.810;9.012;2022-07-23T00:13:02;24.10;84.50
8226;DHT22;4154;48.810;9.012;2022-07-23T00:15:29;24.10;84.40
8226;DHT22;4154;48.810;9.012;2022-07-23T00:17:55;24.10;85.50
8226;DHT22;4154;48.810;9.012;2022-07-23T00:20:20;24.10;85.80
8226;DHT22;4154;48.810;9.012;2022-07-23T00:22:50;24.10;85.30
8226;DHT22;4154;48.810;9.012;2022-07-23T00:25:18;24.00;85.30
8226;DHT22;4154;48.810;9.012;2022-07-23T00:27:45;24.10;85.80
8226;DHT22;4154;48.810;9.012;2022-07-23T00:30:11;24.00;85.70
8226;DHT22;4154;48.810;9.012;2022-07-23T00:32:55;23.80;89.40
8226;DHT22;4154;48.810;9.012;2022-07-23T00:35:25;24.00;85.50
8226;DHT22;4154;48.810;9.012;2022-07-23T00:37:51;24.00;85.40
8226;DHT22;4154;48.810;9.012;2022-07-23T00:40:17;23.90;85.30
8226;DHT22;4154;48.810;9.012;2022-07-23T00:42:43;23.90;85.70
8226;DHT22;4154;48.810;9.012;2022-07-23T00:45:10;23.90;88.00
8226;DHT22;4154;48.810;9.012;2022-07-23T00:47:36;23.90;85.50
8226;DHT22;4154;48.810;9.012;2022-07-23T00:50:04;23.90;86.20
8226;DHT22;4154;48.810;9.012;2022-07-23T00:52:32;23.90;88.90
8226;DHT22;4154;48.810;9.012;2022-07-23T00:54:59;23.80;86.10
8226;DHT22;4154;48.810;9.012;2022-07-23T00:57:25;23.80;85.70
8226;DHT22;4154;48.810;9.012;2022-07-23T00:59:51;23.80;85.80
8226;DHT22;4154;48.810;9.012;2022-07-23T01:02:17;23.80;85.60
8226;DHT22;4154;48.810;9.012;2022-07-23T01:04:43;23.70;85.90
8226;DHT22;4154;48.810;9.012;2022-07-23T01:07:09;23.70;86.20
8226;DHT22;4154;48.810;9.012;2022-07-23T01:09:36;23.70;86.70
8226;DHT22;4154;48.810;9.012;2022-07-23T01:12:03;23.70;86.10
8226;DHT22;4154;48.810;9.012;2022-07-23T01:16:56;23.70;85.80
8226;DHT22;4154;48.810;9.012;2022-07-23T01:19:22;23.60;86.20
8226;DHT22;4154;48.810;9.012;2022-07-23T01:21:50;23.60;86.40
8226;DHT22;4154;48.810;9.012;2022-07-23T01:24:17;23.60;86.90
8226;DHT22;4154;48.810;9.012;2022-07-23T01:26:46;23.60;87.10
8226;DHT22;4154;48.810;9.012;2022-07-23T01:29:13;23.50;87.10
8226;DHT22;4154;48.810;9.012;2022-07-23T01:31:40;23.50;87.60
8226;DHT22;4154;48.810;9.012;2022-07-23T01:34:06;23.50;87.90
8226;DHT22;4154;48.810;9.012;2022-07-23T01:36:36;23.50;88.40
8226;DHT22;4154;48.810;9.012;2022-07-23T01:39:07;23.40;88.60
8226;DHT22;4154;48.810;9.012;2022-07-23T01:41:34;23.40;88.60
8226;DHT22;4154;48.810;9.012;2022-07-23T01:44:00;23.30;88.70
8226;DHT22;4154;48.810;9.012;2022-07-23T01:46:26;23.30;89.00
8226;DHT22;4154;48.810;9.012;2022-07-23T01:48:52;23.20;88.50
8226;DHT22;4154;48.810;9.012;2022-07-23T01:51:18;23.20;89.40
8226;DHT22;4154;48.810;9.012;2022-07-23T01:53:43;23.20;89.40
8226;DHT22;4154;48.810;9.012;2022-07-23T01:56:09;23.10;89.50
8226;DHT22;4154;48.810;9.012;2022-07-23T01:58:35;23.10;89.80
8226;DHT22;4154;48.810;9.012;2022-07-23T02:01:01;23.00;89.30
8226;DHT22;4154;48.810;9.012;2022-07-23T02:03:27;23.00;89.30
8226;DHT22;4154;48.810;9.012;2022-07-23T02:05:52;23.00;89.30
8226;DHT22;4154;48.810;9.012;2022-07-23T02:08:18;22.90;89.50
8226;DHT22;4154;48.810;9.012;2022-07-23T02:10:44;22.90;90.00
8226;DHT22;4154;48.810;9.012;2022-07-23T02:13:11;22.90;90.10
8226;DHT22;4154;48.810;9.012;2022-07-23T02:15:37;22.80;90.10
8226;DHT22;4154;48.810;9.012;2022-07-23T02:18:03;22.80;90.10
8226;DHT22;4154;48.810;9.012;2022-07-23T02:20:29;22.80;90.10
8226;DHT22;4154;48.810;9.012;2022-07-23T02:22:55;22.70;90.10
8226;DHT22;4154;48.810;9.012;2022-07-23T02:25:21;22.70;89.80
8226;DHT22;4154;48.810;9.012;2022-07-23T02:27:47;22.70;90.10
8226;DHT22;4154;48.810;9.012;2022-07-23T02:30:12;22.70;90.00
8226;DHT22;4154;48.810;9.012;2022-07-23T02:32:38;22.70;89.80
8226;DHT22;4154;48.810;9.012;2022-07-23T02:35:05;22.70;91.90
8226;DHT22;4154;48.810;9.012;2022-07-23T02:37:31;22.70;90.10
8226;DHT22;4154;48.810;9.012;2022-07-23T02:39:57;22.70;90.30
8226;DHT22;4154;48.810;9.012;2022-07-23T02:42:23;22.50;91.80
8226;DHT22;4154;48.810;9.012;2022-07-23T02:44:50;22.70;90.50
8226;DHT22;4154;48.810;9.012;2022-07-23T02:47:16;22.60;90.50
8226;DHT22;4154;48.810;9.012;2022-07-23T02:49:42;22.60;90.30
8226;DHT22;4154;48.810;9.012;2022-07-23T02:52:08;22.50;91.40
8226;DHT22;4154;48.810;9.012;2022-07-23T02:54:36;22.50;90.00
8226;DHT22;4154;48.810;9.012;2022-07-23T02:57:03;22.50;89.80
8226;DHT22;4154;48.810;9.012;2022-07-23T02:59:29;22.50;89.70
8226;DHT22;4154;48.810;9.012;2022-07-23T03:01:55;22.60;90.30
8226;DHT22;4154;48.810;9.012;2022-07-23T03:04:21;22.60;90.30
8226;DHT22;4154;48.810;9.012;2022-07-23T03:06:47;22.60;90.50
8226;DHT22;4154;48.810;9.012;2022-07-23T03:09:13;22.60;90.70
8226;DHT22;4154;48.810;9.012;2022-07-23T03:11:38;22.50;90.70
8226;DHT22;4154;48.810;9.012;2022-07-23T03:14:04;22.50;90.90
8226;DHT22;4154;48.810;9.012;2022-07-23T03:16:31;22.50;91.00
8226;DHT22;4154;48.810;9.012;2022-07-23T03:18:57;22.40;91.00
8226;DHT22;4154;48.810;9.012;2022-07-23T03:21:22;22.40;91.00
8226;DHT22;4154;48.810;9.012;2022-07-23T03:23:48;22.40;91.10
8226;DHT22;4154;48.810;9.012;2022-07-23T03:26:14;22.30;91.20
8226;DHT22;4154;48.810;9.012;2022-07-23T03:28:39;22.20;91.30
8226;DHT22;4154;48.810;9.012;2022-07-23T03:31:05;22.20;91.40
8226;DHT22;4154;48.810;9.012;2022-07-23T03:33:31;22.20;91.50
8226;DHT22;4154;48.810;9.012;2022-07-23T03:35:57;22.10;91.50
8226;DHT22;4154;48.810;9.012;2022-07-23T03:38:22;22.10;91.60
8226;DHT22;4154;48.810;9.012;2022-07-23T03:40:48;22.00;91.60
8226;DHT22;4154;48.810;9.012;2022-07-23T03:43:14;21.90;91.70
8226;DHT22;4154;48.810;9.012;2022-07-23T03:45:40;21.90;91.80
8226;DHT22;4154;48.810;9.012;2022-07-23T03:48:06;21.90;91.90
8226;DHT22;4154;48.810;9.012;2022-07-23T03:50:31;21.80;92.00
8226;DHT22;4154;48.810;9.012;2022-07-23T03:52:57;21.80;92.10
8226;DHT22;4154;48.810;9.012;2022-07-23T03:55:23;21.70;92.20
8226;DHT22;4154;48.810;9.012;2022-07-23T03:57:49;21.80;93.60
8226;DHT22;4154;48.810;9.012;2022-07-23T04:00:14;21.70;92.00
8226;DHT22;4154;48.810;9.012;2022-07-23T04:02:40;21.70;92.10
8226;DHT22;4154;48.810;9.012;2022-07-23T04:05:07;21.70;92.10
8226;DHT22;4154;48.810;9.012;2022-07-23T04:07:33;21.70;92.20
8226;DHT22;4154;48.810;9.012;2022-07-23T04:09:59;21.70;92.00
8226;DHT22;4154;48.810;9.012;2022-07-23T04:12:25;21.70;93.40
8226;DHT22;4154;48.810;9.012;2022-07-23T04:14:50;21.70;92.00
8226;DHT22;4154;48.810;9.012;2022-07-23T04:17:16;21.70;91.80
8226;DHT22;4154;48.810;9.012;2022-07-23T04:19:42;21.70;91.90
8226;DHT22;4154;48.810;9.012;2022-07-23T04:22:11;21.70;91.60
8226;DHT22;4154;48.810;9.012;2022-07-23T04:24:38;21.80;91.70
8226;DHT22;4154;48.810;9.012;2022-07-23T04:27:04;21.70;91.60
8226;DHT22;4154;48.810;9.012;2022-07-23T04:29:30;21.80;91.50
8226;DHT22;4154;48.810;9.012;2022-07-23T04:31:56;21.80;91.60
8226;DHT22;4154;48.810;9.012;2022-07-23T04:34:22;21.80;92.00
8226;DHT22;4154;48.810;9.012;2022-07-23T04:36:49;21.80;92.10
8226;DHT22;4154;48.810;9.012;2022-07-23T04:39:15;21.80;92.20
8226;DHT22;4154;48.810;9.012;2022-07-23T04:41:40;21.80;92.40
8226;DHT22;4154;48.810;9.012;2022-07-23T04:44:06;21.80;92.40
8226;DHT22;4154;48.810;9.012;2022-07-23T04:46:32;21.80;92.50
8226;DHT22;4154;48.810;9.012;2022-07-23T04:48:58;21.80;92.70
8226;DHT22;4154;48.810;9.012;2022-07-23T04:51:24;21.80;92.60
8226;DHT22;4154;48.810;9.012;2022-07-23T04:53:50;21.70;92.70
8226;DHT22;4154;48.810;9.012;2022-07-23T04:56:15;21.70;92.80
8226;DHT22;4154;48.810;9.012;2022-07-23T04:58:41;21.70;92.80
8226;DHT22;4154;48.810;9.012;2022-07-23T05:01:07;21.70;93.00
8226;DHT22;4154;48.810;9.012;2022-07-23T05:03:33;21.70;93.00
8226;DHT22;4154;48.810;9.012;2022-07-23T05:05:59;21.70;92.80
8226;DHT22;4154;48.810;9.012;2022-07-23T05:10:51;21.80;92.80
8226;DHT22;4154;48.810;9.012;2022-07-23T05:13:17;21.80;92.90
8226;DHT22;4154;48.810;9.012;2022-07-23T05:15:44;21.80;92.70
8226;DHT22;4154;48.810;9.012;2022-07-23T05:18:10;21.80;92.50
8226;DHT22;4154;48.810;9.012;2022-07-23T05:20:36;21.80;92.30
8226;DHT22;4154;48.810;9.012;2022-07-23T05:23:03;21.80;92.10
8226;DHT22;4154;48.810;9.012;2022-07-23T05:25:29;22.00;93.70
8226;DHT22;4154;48.810;9.012;2022-07-23T05:27:55;21.90;92.30
8226;DHT22;4154;48.810;9.012;2022-07-23T05:30:21;21.90;92.50
8226;DHT22;4154;48.810;9.012;2022-07-23T05:32:46;21.90;92.50
8226;DHT22;4154;48.810;9.012;2022-07-23T05:35:12;22.00;92.80
8226;DHT22;4154;48.810;9.012;2022-07-23T05:37:38;22.00;92.80
8226;DHT22;4154;48.810;9.012;2022-07-23T05:40:08;22.00;92.70
8226;DHT22;4154;48.810;9.012;2022-07-23T05:42:39;21.80;93.60
8226;DHT22;4154;48.810;9.012;2022-07-23T05:45:07;22.10;92.30
8226;DHT22;4154;48.810;9.012;2022-07-23T05:47:59;22.10;92.60
8226;DHT22;4154;48.810;9.012;2022-07-23T05:50:25;22.10;92.90
8226;DHT22;4154;48.810;9.012;2022-07-23T05:52:51;22.10;92.60
8226;DHT22;4154;48.810;9.012;2022-07-23T05:55:16;22.20;92.60
8226;DHT22;4154;48.810;9.012;2022-07-23T05:57:42;22.10;92.80
8226;DHT22;4154;48.810;9.012;2022-07-23T06:00:09;22.20;94.00
8226;DHT22;4154;48.810;9.012;2022-07-23T06:02:37;22.00;94.30
8226;DHT22;4154;48.810;9.012;2022-07-23T06:05:04;22.10;92.80
8226;DHT22;4154;48.810;9.012;2022-07-23T06:07:33;22.10;92.80
8226;DHT22;4154;48.810;9.012;2022-07-23T06:09:59;22.20;92.50
8226;DHT22;4154;48.810;9.012;2022-07-23T06:12:25;22.20;93.30
8226;DHT22;4154;48.810;9.012;2022-07-23T06:14:51;22.10;92.00
8226;DHT22;4154;48.810;9.012;2022-07-23T06:17:18;22.10;91.60
8226;DHT22;4154;48.810;9.012;2022-07-23T06:19:44;22.10;91.50
8226;DHT22;4154;48.810;9.012;2022-07-23T06:22:09;22.10;91.70
8226;DHT22;4154;48.810;9.012;2022-07-23T06:24:35;22.20;91.90
8226;DHT22;4154;48.810;9.012;2022-07-23T06:27:01;22.20;91.90
8226;DHT22;4154;48.810;9.012;2022-07-23T06:29:27;22.30;91.50
8226;DHT22;4154;48.810;9.012;2022-07-23T06:31:52;22.30;91.00
8226;DHT22;4154;48.810;9.012;2022-07-23T06:34:18;22.30;91.00
8226;DHT22;4154;48.810;9.012;2022-07-23T06:36:44;22.40;90.90
8226;DHT22;4154;48.810;9.012;2022-07-23T06:39:10;22.50;92.40
8226;DHT22;4154;48.810;9.012;2022-07-23T06:41:36;22.40;91.00
8226;DHT22;4154;48.810;9.012;2022-07-23T06:44:02;22.40;91.10
8226;DHT22;4154;48.810;9.012;2022-07-23T06:46:28;22.40;91.10
8226;DHT22;4154;48.810;9.012;2022-07-23T06:48:54;22.40;91.00
8226;DHT22;4154;48.810;9.012;2022-07-23T06:51:20;22.40;91.30
8226;DHT22;4154;48.810;9.012;2022-07-23T06:53:46;22.40;91.60
8226;DHT22;4154;48.810;9.012;2022-07-23T06:56:12;22.40;91.70
8226;DHT22;4154;48.810;9.012;2022-07-23T06:58:38;22.30;91.20
8226;DHT22;4154;48.810;9.012;2022-07-23T07:01:03;22.30;91.30
8226;DHT22;4154;48.810;9.012;2022-07-23T07:03:29;22.30;91.30
8226;DHT22;4154;48.810;9.012;2022-07-23T07:05:55;22.20;91.10
8226;DHT22;4154;48.810;9.012;2022-07-23T07:08:23;22.30;92.70
8226;DHT22;4154;48.810;9.012;2022-07-23T07:10:49;22.20;91.50
8226;DHT22;4154;48.810;9.012;2022-07-23T07:13:14;22.10;91.80
8226;DHT22;4154;48.810;9.012;2022-07-23T07:15:41;22.20;92.50
8226;DHT22;4154;48.810;9.012;2022-07-23T07:18:07;22.20;94.00
8226;DHT22;4154;48.810;9.012;2022-07-23T07:20:33;22.10;94.30
8226;DHT22;4154;48.810;9.012;2022-07-23T07:22:59;22.00;94.70
8226;DHT22;4154;48.810;9.012;2022-07-23T07:25:25;21.80;95.20
8226;DHT22;4154;48.810;9.012;2022-07-23T07:27:51;21.70;95.80
8226;DHT22;4154;48.810;9.012;2022-07-23T07:30:17;21.60;95.90
8226;DHT22;4154;48.810;9.012;2022-07-23T07:32:42;21.60;96.30
8226;DHT22;4154;48.810;9.012;2022-07-23T07:35:09;21.50;96.30
8226;DHT22;4154;48.810;9.012;2022-07-23T07:37:34;21.50;96.30
8226;DHT22;4154;48.810;9.012;2022-07-23T07:40:00;21.40;96.40
8226;DHT22;4154;48.810;9.012;2022-07-23T07:42:26;21.60;98.40
8226;DHT22;4154;48.810;9.012;2022-07-23T07:44:52;21.40;97.00
8226;DHT22;4154;48.810;9.012;2022-07-23T07:47:18;21.40;97.20
8226;DHT22;4154;48.810;9.012;2022-07-23T07:49:44;21.40;97.20
8226;DHT22;4154;48.810;9.012;2022-07-23T07:52:10;21.40;97.40
8226;DHT22;4154;48.810;9.012;2022-07-23T07:54:36;21.10;98.70
8226;DHT22;4154;48.810;9.012;2022-07-23T07:59:28;21.40;97.70
8226;DHT22;4154;48.810;9.012;2022-07-23T08:01:54;21.50;98.10
8226;DHT22;4154;48.810;9.012;2022-07-23T08:04:20;21.50;98.10
8226;DHT22;4154;48.810;9.012;2022-07-23T08:06:46;21.50;98.40
8226;DHT22;4154;48.810;9.012;2022-07-23T08:09:12;21.60;98.60
8226;DHT22;4154;48.810;9.012;2022-07-23T08:14:04;21.70;98.60
8226;DHT22;4154;48.810;9.012;2022-07-23T08:16:30;21.70;98.80
8226;DHT22;4154;48.810;9.012;2022-07-23T08:18:55;21.70;99.00
8226;DHT22;4154;48.810;9.012;2022-07-23T08:21:21;21.80;99.90
8226;DHT22;4154;48.810;9.012;2022-07-23T08:23:47;21.80;98.90
8226;DHT22;4154;48.810;9.012;2022-07-23T08:26:13;21.90;98.20
8226;DHT22;4154;48.810;9.012;2022-07-23T08:28:39;22.00;97.90
8226;DHT22;4154;48.810;9.012;2022-07-23T08:31:05;22.10;98.00
8226;DHT22;4154;48.810;9.012;2022-07-23T08:33:31;22.20;98.10
8226;DHT22;4154;48.810;9.012;2022-07-23T08:35:58;22.30;98.20
8226;DHT22;4154;48.810;9.012;2022-07-23T08:38:24;22.40;97.80
8226;DHT22;4154;48.810;9.012;2022-07-23T08:40:53;22.40;97.60
8226;DHT22;4154;48.810;9.012;2022-07-23T08:43:22;22.50;96.00
8226;DHT22;4154;48.810;9.012;2022-07-23T08:45:53;22.50;96.20
8226;DHT22;4154;48.810;9.012;2022-07-23T08:48:25;22.60;96.20
8226;DHT22;4154;48.810;9.012;2022-07-23T08:50:54;22.60;96.20
8226;DHT22;4154;48.810;9.012;2022-07-23T08:53:24;22.60;95.80
8226;DHT22;4154;48.810;9.012;2022-07-23T08:55:57;22.70;95.60
8226;DHT22;4154;48.810;9.012;2022-07-23T08:58:25;22.70;95.50
8226;DHT22;4154;48.810;9.012;2022-07-23T09:00:51;22.70;94.80
8226;DHT22;4154;48.810;9.012;2022-07-23T09:03:20;22.80;94.40
8226;DHT22;4154;48.810;9.012;2022-07-23T09:05:50;22.80;94.40
8226;DHT22;4154;48.810;9.012;2022-07-23T09:08:21;22.70;94.30
8226;DHT22;4154;48.810;9.012;2022-07-23T09:11:00;22.80;94.10
8226;DHT22;4154;48.810;9.012;2022-07-23T09:13:37;22.80;94.00
8226;DHT22;4154;48.810;9.012;2022-07-23T09:18:44;22.90;93.90
8226;DHT22;4154;48.810;9.012;2022-07-23T09:21:33;22.90;93.60
8226;DHT22;4154;48.810;9.012;2022-07-23T09:24:08;22.90;94.10
8226;DHT22;4154;48.810;9.012;2022-07-23T09:26:45;23.00;93.80
8226;DHT22;4154;48.810;9.012;2022-07-23T09:32:02;23.10;93.50
8226;DHT22;4154;48.810;9.012;2022-07-23T09:34:35;23.10;93.60
8226;DHT22;4154;48.810;9.012;2022-07-23T09:37:11;23.10;93.30
8226;DHT22;4154;48.810;9.012;2022-07-23T09:39:40;23.10;93.10
8226;DHT22;4154;48.810;9.012;2022-07-23T09:42:25;23.20;92.80
8226;DHT22;4154;48.810;9.012;2022-07-23T09:44:54;23.30;93.10
8226;DHT22;4154;48.810;9.012;2022-07-23T09:47:24;23.30;93.30
8226;DHT22;4154;48.810;9.012;2022-07-23T09:52:48;23.50;93.50
8226;DHT22;4154;48.810;9.012;2022-07-23T09:55:16;23.50;92.00
8226;DHT22;4154;48.810;9.012;2022-07-23T09:57:44;23.60;92.30
8226;DHT22;4154;48.810;9.012;2022-07-23T10:00:12;23.60;92.10
8226;DHT22;4154;48.810;9.012;2022-07-23T10:02:39;23.70;92.20
8226;DHT22;4154;48.810;9.012;2022-07-23T10:05:07;23.70;92.10
8226;DHT22;4154;48.810;9.012;2022-07-23T10:07:36;23.90;91.80
8226;DHT22;4154;48.810;9.012;2022-07-23T10:10:05;24.00;91.80
8226;DHT22;4154;48.810;9.012;2022-07-23T10:12:32;24.30;92.30
8226;DHT22;4154;48.810;9.012;2022-07-23T10:15:10;24.20;91.40
8226;DHT22;4154;48.810;9.012;2022-07-23T10:17:36;24.20;90.80
8226;DHT22;4154;48.810;9.012;2022-07-23T10:20:03;24.30;90.90
8226;DHT22;4154;48.810;9.012;2022-07-23T10:22:36;24.50;91.10
8226;DHT22;4154;48.810;9.012;2022-07-23T10:25:10;24.40;90.30
8226;DHT22;4154;48.810;9.012;2022-07-23T10:27:51;24.50;90.30
8226;DHT22;4154;48.810;9.012;2022-07-23T10:34:11;24.60;90.50
8226;DHT22;4154;48.810;9.012;2022-07-23T10:37:22;24.70;91.20
8226;DHT22;4154;48.810;9.012;2022-07-23T10:42:37;24.80;89.50
8226;DHT22;4154;48.810;9.012;2022-07-23T10:45:34;24.90;86.40
8226;DHT22;4154;48.810;9.012;2022-07-23T10:48:31;25.00;85.80
8226;DHT22;4154;48.810;9.012;2022-07-23T10:51:11;25.00;86.40
8226;DHT22;4154;48.810;9.012;2022-07-23T10:56:48;25.20;88.90
8226;DHT22;4154;48.810;9.012;2022-07-23T10:59:24;25.20;90.70
8226;DHT22;4154;48.810;9.012;2022-07-23T11:01:50;25.50;88.90
8226;DHT22;4154;48.810;9.012;2022-07-23T11:04:16;25.50;86.90
8226;DHT22;4154;48.810;9.012;2022-07-23T11:09:39;25.70;85.10
8226;DHT22;4154;48.810;9.012;2022-07-23T11:17:26;25.80;85.30
8226;DHT22;4154;48.810;9.012;2022-07-23T11:25:05;25.90;84.20
8226;DHT22;4154;48.810;9.012;2022-07-23T11:27:45;25.90;86.00
8226;DHT22;4154;48.810;9.012;2022-07-23T11:35:40;25.90;83.40
8226;DHT22;4154;48.810;9.012;2022-07-23T11:38:18;25.90;83.60
8226;DHT22;4154;48.810;9.012;2022-07-23T11:40:53;26.00;84.10
8226;DHT22;4154;48.810;9.012;2022-07-23T11:43:22;26.00;85.30
8226;DHT22;4154;48.810;9.012;2022-07-23T11:45:54;26.20;84.40
8226;DHT22;4154;48.810;9.012;2022-07-23T11:48:29;26.20;84.90
8226;DHT22;4154;48.810;9.012;2022-07-23T11:50:57;26.30;82.90
8226;DHT22;4154;48.810;9.012;2022-07-23T11:53:27;26.30;82.40
8226;DHT22;4154;48.810;9.012;2022-07-23T11:56:05;26.30;80.50
8226;DHT22;4154;48.810;9.012;2022-07-23T11:58:33;26.30;80.90
8226;DHT22;4154;48.810;9.012;2022-07-23T12:00:59;26.40;83.90
8226;DHT22;4154;48.810;9.012;2022-07-23T12:03:26;26.40;84.20
8226;DHT22;4154;48.810;9.012;2022-07-23T12:05:57;26.50;82.90
8226;DHT22;4154;48.810;9.012;2022-07-23T12:10:49;26.50;81.60
8226;DHT22;4154;48.810;9.012;2022-07-23T12:13:17;26.60;83.00
8226;DHT22;4154;48.810;9.012;2022-07-23T12:15:47;26.70;83.80
8226;DHT22;4154;48.810;9.012;2022-07-23T12:18:17;26.70;81.40
8226;DHT22;4154;48.810;9.012;2022-07-23T12:20:47;26.70;81.90
8226;DHT22;4154;48.810;9.012;2022-07-23T12:23:24;26.60;81.90
8226;DHT22;4154;48.810;9.012;2022-07-23T12:25:52;26.70;83.10
8226;DHT22;4154;48.810;9.012;2022-07-23T12:30:48;26.70;82.40
8226;DHT22;4154;48.810;9.012;2022-07-23T12:33:34;26.70;83.50
8226;DHT22;4154;48.810;9.012;2022-07-23T12:36:03;26.90;84.20
8226;DHT22;4154;48.810;9.012;2022-07-23T12:38:47;27.00;81.50
8226;DHT22;4154;48.810;9.012;2022-07-23T12:41:16;27.00;81.00
8226;DHT22;4154;48.810;9.012;2022-07-23T12:43:45;27.00;80.50
8226;DHT22;4154;48.810;9.012;2022-07-23T12:46:18;26.90;80.30
8226;DHT22;4154;48.810;9.012;2022-07-23T12:51:30;26.70;81.40
8226;DHT22;4154;48.810;9.012;2022-07-23T12:54:06;26.70;80.50
8226;DHT22;4154;48.810;9.012;2022-07-23T12:56:44;26.60;81.00
8226;DHT22;4154;48.810;9.012;2022-07-23T12:59:15;26.60;81.20
8226;DHT22;4154;48.810;9.012;2022-07-23T13:01:55;26.60;81.20
8226;DHT22;4154;48.810;9.012;2022-07-23T13:04:25;26.50;79.40
8226;DHT22;4154;48.810;9.012;2022-07-23T13:06:53;26.50;79.30
8226;DHT22;4154;48.810;9.012;2022-07-23T13:09:24;26.50;80.20
8226;DHT22;4154;48.810;9.012;2022-07-23T13:11:52;26.50;80.20
8226;DHT22;4154;48.810;9.012;2022-07-23T13:14:20;26.40;80.60
8226;DHT22;4154;48.810;9.012;2022-07-23T13:16:49;26.50;80.30
8226;DHT22;4154;48.810;9.012;2022-07-23T13:24:10;26.80;81.80
8226;DHT22;4154;48.810;9.012;2022-07-23T13:29:05;26.90;78.70
8226;DHT22;4154;48.810;9.012;2022-07-23T13:38:50;27.20;77.80
8226;DHT22;4154;48.810;9.012;2022-07-23T13:41:17;27.40;78.50
8226;DHT22;4154;48.810;9.012;2022-07-23T13:43:44;27.40;79.00
8226;DHT22;4154;48.810;9.012;2022-07-23T13:58:33;27.80;80.60
8226;DHT22;4154;48.810;9.012;2022-07-23T14:05:52;28.10;76.60
8226;DHT22;4154;48.810;9.012;2022-07-23T14:13:11;28.10;75.40
8226;DHT22;4154;48.810;9.012;2022-07-23T14:18:06;28.20;74.30
8226;DHT22;4154;48.810;9.012;2022-07-23T14:20:32;28.20;74.20
8226;DHT22;4154;48.810;9.012;2022-07-23T14:22:58;28.30;76.50
8226;DHT22;4154;48.810;9.012;2022-07-23T14:25:26;28.30;76.50
8226;DHT22;4154;48.810;9.012;2022-07-23T14:27:53;28.30;72.70
8226;DHT22;4154;48.810;9.012;2022-07-23T14:30:19;28.40;74.90
8226;DHT22;4154;48.810;9.012;2022-07-23T14:32:48;28.40;75.50
8226;DHT22;4154;48.810;9.012;2022-07-23T14:37:40;28.50;75.00
8226;DHT22;4154;48.810;9.012;2022-07-23T14:40:06;28.60;74.20
8226;DHT22;4154;48.810;9.012;2022-07-23T14:42:32;28.60;74.90
8226;DHT22;4154;48.810;9.012;2022-07-23T14:44:58;28.60;73.30
8226;DHT22;4154;48.810;9.012;2022-07-23T14:47:23;28.70;73.80
8226;DHT22;4154;48.810;9.012;2022-07-23T14:49:50;28.70;73.40
8226;DHT22;4154;48.810;9.012;2022-07-23T14:52:16;28.70;72.50
8226;DHT22;4154;48.810;9.012;2022-07-23T14:54:42;28.60;73.00
8226;DHT22;4154;48.810;9.012;2022-07-23T14:57:08;28.50;72.80
8226;DHT22;4154;48.810;9.012;2022-07-23T14:59:34;28.40;73.10
8226;DHT22;4154;48.810;9.012;2022-07-23T15:02:00;28.20;72.70
8226;DHT22;4154;48.810;9.012;2022-07-23T15:04:26;28.10;73.60
8226;DHT22;4154;48.810;9.012;2022-07-23T15:06:52;28.00;74.50
8226;DHT22;4154;48.810;9.012;2022-07-23T15:09:18;27.90;74.90
8226;DHT22;4154;48.810;9.012;2022-07-23T15:11:44;27.90;75.20
8226;DHT22;4154;48.810;9.012;2022-07-23T15:14:10;28.00;75.70
8226;DHT22;4154;48.810;9.012;2022-07-23T15:16:36;28.00;77.20
8226;DHT22;4154;48.810;9.012;2022-07-23T15:19:03;28.10;76.10
8226;DHT22;4154;48.810;9.012;2022-07-23T15:21:29;28.30;78.60
8226;DHT22;4154;48.810;9.012;2022-07-23T15:23:57;28.30;76.80
8226;DHT22;4154;48.810;9.012;2022-07-23T15:26:27;28.30;75.80
8226;DHT22;4154;48.810;9.012;2022-07-23T15:28:54;28.30;74.80
8226;DHT22;4154;48.810;9.012;2022-07-23T15:31:21;28.40;74.30
8226;DHT22;4154;48.810;9.012;2022-07-23T15:33:47;28.40;74.50
8226;DHT22;4154;48.810;9.012;2022-07-23T15:36:13;28.40;74.90
8226;DHT22;4154;48.810;9.012;2022-07-23T15:38:39;28.50;74.10
8226;DHT22;4154;48.810;9.012;2022-07-23T15:41:04;28.50;73.30
8226;DHT22;4154;48.810;9.012;2022-07-23T15:43:30;28.50;73.20
8226;DHT22;4154;48.810;9.012;2022-07-23T15:45:57;28.60;74.00
8226;DHT22;4154;48.810;9.012;2022-07-23T15:48:23;28.60;75.00
8226;DHT22;4154;48.810;9.012;2022-07-23T15:50:49;28.60;73.90
8226;DHT22;4154;48.810;9.012;2022-07-23T15:53:15;28.60;74.00
8226;DHT22;4154;48.810;9.012;2022-07-23T15:55:42;28.60;73.10
8226;DHT22;4154;48.810;9.012;2022-07-23T15:58:10;28.60;74.00
8226;DHT22;4154;48.810;9.012;2022-07-23T16:00:36;28.60;74.10
8226;DHT22;4154;48.810;9.012;2022-07-23T16:03:01;28.60;74.20
8226;DHT22;4154;48.810;9.012;2022-07-23T16:05:27;28.50;73.80
8226;DHT22;4154;48.810;9.012;2022-07-23T16:07:55;28.50;73.50
8226;DHT22;4154;48.810;9.012;2022-07-23T16:10:22;28.50;73.00
8226;DHT22;4154;48.810;9.012;2022-07-23T16:12:48;28.50;72.80
8226;DHT22;4154;48.810;9.012;2022-07-23T16:15:14;28.40;73.50
8226;DHT22;4154;48.810;9.012;2022-07-23T16:20:07;28.30;72.80
8226;DHT22;4154;48.810;9.012;2022-07-23T16:22:34;28.10;75.60
8226;DHT22;4154;48.810;9.012;2022-07-23T16:25:00;28.10;73.80
8226;DHT22;4154;48.810;9.012;2022-07-23T16:29:53;27.90;75.60
8226;DHT22;4154;48.810;9.012;2022-07-23T16:32:19;27.80;77.50
8226;DHT22;4154;48.810;9.012;2022-07-23T16:34:45;27.80;76.40
8226;DHT22;4154;48.810;9.012;2022-07-23T16:37:10;27.80;74.80
8226;DHT22;4154;48.810;9.012;2022-07-23T16:39:37;27.80;75.20
8226;DHT22;4154;48.810;9.012;2022-07-23T16:42:03;27.70;75.30
8226;DHT22;4154;48.810;9.012;2022-07-23T16:44:29;27.60;75.70
8226;DHT22;4154;48.810;9.012;2022-07-23T16:46:55;27.70;76.10
8226;DHT22;4154;48.810;9.012;2022-07-23T16:49:21;27.60;76.80
8226;DHT22;4154;48.810;9.012;2022-07-23T16:51:46;27.60;77.10
8226;DHT22;4154;48.810;9.012;2022-07-23T16:54:12;27.60;77.50
8226;DHT22;4154;48.810;9.012;2022-07-23T16:56:39;27.60;78.40
8226;DHT22;4154;48.810;9.012;2022-07-23T17:01:32;27.50;77.90
8226;DHT22;4154;48.810;9.012;2022-07-23T17:06:24;27.50;78.00
8226;DHT22;4154;48.810;9.012;2022-07-23T17:08:50;27.50;78.80
8226;DHT22;4154;48.810;9.012;2022-07-23T17:11:15;27.50;80.30
8226;DHT22;4154;48.810;9.012;2022-07-23T17:13:41;27.40;82.20
8226;DHT22;4154;48.810;9.012;2022-07-23T17:16:07;27.40;79.90
8226;DHT22;4154;48.810;9.012;2022-07-23T17:18:33;27.30;78.80
8226;DHT22;4154;48.810;9.012;2022-07-23T17:21:01;27.30;78.90
8226;DHT22;4154;48.810;9.012;2022-07-23T17:23:28;27.10;79.70
8226;DHT22;4154;48.810;9.012;2022-07-23T17:28:21;27.20;80.70
8226;DHT22;4154;48.810;9.012;2022-07-23T17:38:08;27.10;81.20
8226;DHT22;4154;48.810;9.012;2022-07-23T17:40:34;27.00;81.30
8226;DHT22;4154;48.810;9.012;2022-07-23T17:43:00;27.00;81.50
8226;DHT22;4154;48.810;9.012;2022-07-23T17:45:26;26.90;82.20
8226;DHT22;4154;48.810;9.012;2022-07-23T17:48:00;26.90;82.50
8226;DHT22;4154;48.810;9.012;2022-07-23T17:56:05;26.90;85.60
8226;DHT22;4154;48.810;9.012;2022-07-23T17:58:31;26.80;85.80
8226;DHT22;4154;48.810;9.012;2022-07-23T18:03:23;26.70;83.20
8226;DHT22;4154;48.810;9.012;2022-07-23T18:08:15;26.70;83.10
8226;DHT22;4154;48.810;9.012;2022-07-23T18:10:41;26.70;84.00